Clay, Michigan
Current Conditions -  °F | °C
As of 12:55 PM on Friday 24 Oct 2014 (Local Time) from KMTC Reporting Station
Broken Clouds Broken Clouds  
Wind Chill: 60°   Ceiling: 7000
Heat Index: 60°   Visibility: 10mi
Dew Point: 43°   Wind: 6mph
Humidity: 53%   Direction: 250°WSW
Pressure: 30.02"   Gusts: NA
Location:  42.6418°N, 82.5677°W
Report Text: KMTC 241655Z 25005KT 10SM SCT055 BKN070 BKN210 16/06 A3002 RMK SLP176 T01560059
Loading
Personal Weather Stations






























Interactive Weather Map
Tropical Storm Tracking
New forecast layout! Learn more

10-Day Weather Forecast

Advertisements
Track Severe Weather on mobile